createdAt,value
2022-12-28T00:01:18.179Z,100.00
2022-12-28T00:03:49.090Z,100.00
2022-12-28T00:06:19.907Z,100.00
2022-12-28T00:08:51.305Z,100.00
2022-12-28T00:11:26.512Z,100.00
2022-12-28T00:14:02.966Z,100.00
2022-12-28T00:16:34.090Z,100.00
2022-12-28T00:19:07.751Z,100.00
2022-12-28T00:21:37.939Z,100.00
2022-12-28T00:24:10.505Z,100.00
2022-12-28T00:26:40.305Z,100.00
2022-12-28T00:29:10.231Z,100.00
2022-12-28T00:31:40.624Z,100.00
2022-12-28T00:34:10.563Z,100.00
2022-12-28T00:37:08.658Z,100.00
2022-12-28T00:39:32.132Z,100.00
2022-12-28T00:42:01.854Z,100.00
2022-12-28T00:44:31.672Z,100.00
2022-12-28T00:47:01.439Z,100.00
2022-12-28T00:50:50.400Z,100.00
2022-12-28T00:53:20.399Z,100.00
2022-12-28T00:55:50.143Z,100.00
2022-12-28T00:58:19.985Z,100.00
2022-12-28T01:00:52.079Z,100.00
2022-12-28T01:03:21.944Z,100.00
2022-12-28T01:05:53.275Z,100.00
2022-12-28T01:08:23.284Z,100.00
2022-12-28T01:10:53.507Z,100.00
2022-12-28T01:13:23.387Z,98.67
2022-12-28T01:15:53.172Z,97.75
2022-12-28T01:18:22.884Z,96.61
2022-12-28T01:20:54.305Z,94.79
2022-12-28T01:23:24.025Z,94.02
2022-12-28T01:25:53.806Z,93.00
2022-12-28T01:28:23.658Z,91.52
2022-12-28T01:30:53.532Z,91.65
2022-12-28T01:33:23.538Z,92.17
2022-12-28T01:35:54.826Z,92.42
2022-12-28T01:38:24.866Z,92.76
2022-12-28T01:40:54.761Z,93.27
2022-12-28T01:43:43.936Z,93.27
2022-12-28T01:46:18.376Z,93.48
2022-12-28T01:48:56.800Z,93.48
2022-12-28T01:51:39.306Z,94.11
2022-12-28T01:54:09.246Z,94.11
2022-12-28T01:56:39.796Z,94.04
2022-12-28T01:59:09.685Z,94.48
2022-12-28T02:01:40.346Z,94.44
2022-12-28T02:04:12.768Z,94.54
2022-12-28T02:06:44.155Z,94.36
2022-12-28T02:09:21.009Z,94.36
2022-12-28T02:11:52.638Z,94.53
2022-12-28T02:14:24.192Z,94.59
2022-12-28T02:16:55.207Z,94.55
2022-12-28T02:19:38.261Z,94.69
2022-12-28T02:22:33.842Z,94.83
2022-12-28T02:25:58.828Z,95.02
2022-12-28T02:29:37.064Z,95.44
2022-12-28T02:32:31.129Z,95.56
2022-12-28T02:35:09.424Z,94.73
2022-12-28T02:37:46.453Z,95.14
2022-12-28T02:40:22.084Z,95.52
2022-12-28T02:42:53.533Z,95.59
2022-12-28T02:45:56.131Z,95.51
2022-12-28T02:48:52.165Z,95.94
2022-12-28T02:51:47.223Z,95.94
2022-12-28T02:55:12.739Z,96.00
2022-12-28T02:58:07.325Z,95.71
2022-12-28T03:00:58.398Z,95.57
2022-12-28T03:03:40.552Z,95.55
2022-12-28T03:06:35.523Z,95.15
2022-12-28T03:09:15.744Z,94.90
2022-12-28T03:11:52.546Z,93.35
2022-12-28T03:14:28.697Z,93.85
2022-12-28T03:17:20.665Z,94.20
2022-12-28T03:20:19.748Z,94.29
2022-12-28T03:23:07.459Z,94.29
2022-12-28T03:26:01.196Z,94.82
2022-12-28T03:28:50.677Z,94.79
2022-12-28T03:31:23.796Z,94.30
2022-12-28T03:34:07.121Z,94.30
2022-12-28T03:36:46.597Z,94.49
2022-12-28T03:39:28.505Z,94.49
2022-12-28T03:42:20.587Z,94.44
2022-12-28T03:44:56.277Z,94.59
2022-12-28T03:47:28.543Z,94.28
2022-12-28T03:51:51.079Z,94.91
2022-12-28T03:54:21.614Z,94.82
2022-12-28T03:56:54.519Z,95.19
2022-12-28T03:59:24.001Z,95.40
2022-12-28T04:01:54.082Z,95.67
2022-12-28T04:04:23.980Z,95.98
2022-12-28T04:06:55.277Z,95.74
2022-12-28T04:09:25.338Z,96.05
2022-12-28T04:11:55.198Z,96.33
2022-12-28T04:14:24.971Z,96.48
2022-12-28T04:16:54.819Z,96.53
2022-12-28T04:19:24.625Z,96.61
2022-12-28T04:21:55.967Z,96.63
2022-12-28T04:24:26.419Z,97.05
2022-12-28T04:26:58.406Z,96.80
2022-12-28T04:29:28.213Z,97.06
2022-12-28T04:31:58.109Z,97.07
2022-12-28T04:34:27.879Z,97.01
2022-12-28T04:36:59.518Z,96.69
2022-12-28T04:39:55.585Z,97.09
2022-12-28T04:42:19.418Z,97.26
2022-12-28T04:44:49.285Z,97.14
2022-12-28T04:47:20.422Z,97.15
2022-12-28T04:49:50.767Z,97.14
2022-12-28T04:52:22.681Z,97.08
2022-12-28T04:54:52.877Z,97.34
2022-12-28T04:57:22.671Z,97.44
2022-12-28T04:59:52.439Z,97.32
2022-12-28T05:02:22.333Z,97.79
2022-12-28T05:04:52.349Z,97.46
2022-12-28T05:07:23.765Z,97.18
2022-12-28T05:09:53.518Z,97.03
2022-12-28T05:12:23.432Z,97.28
2022-12-28T05:14:53.981Z,97.30
2022-12-28T05:17:23.835Z,96.98
2022-12-28T05:19:53.645Z,97.06
2022-12-28T05:22:25.006Z,97.04
2022-12-28T05:24:54.987Z,97.40
2022-12-28T05:27:24.844Z,97.44
2022-12-28T05:29:54.751Z,97.28
2022-12-28T05:32:24.650Z,97.37
2022-12-28T05:34:54.679Z,97.35
2022-12-28T05:37:26.048Z,97.40
2022-12-28T05:39:55.948Z,97.34
2022-12-28T05:42:26.071Z,97.30
2022-12-28T05:44:55.939Z,97.03
2022-12-28T05:47:27.402Z,96.93
2022-12-28T05:49:57.225Z,97.16
2022-12-28T05:52:30.539Z,97.24
2022-12-28T05:55:00.396Z,97.30
2022-12-28T05:57:30.385Z,97.12
2022-12-28T06:00:01.609Z,97.15
2022-12-28T06:02:31.577Z,97.11
2022-12-28T06:05:01.648Z,97.68
2022-12-28T06:07:32.968Z,97.79
2022-12-28T06:10:02.921Z,97.34
2022-12-28T06:12:32.627Z,97.56
2022-12-28T06:15:02.926Z,97.50
2022-12-28T06:17:32.807Z,97.56
2022-12-28T06:20:02.681Z,97.71
2022-12-28T06:22:34.019Z,97.45
2022-12-28T06:25:03.822Z,97.67
2022-12-28T06:27:33.786Z,97.91
2022-12-28T06:30:03.644Z,97.82
2022-12-28T06:32:33.464Z,97.99
2022-12-28T06:35:04.107Z,98.17
2022-12-28T06:37:35.640Z,98.23
2022-12-28T06:40:05.816Z,98.20
2022-12-28T06:42:35.828Z,98.23
2022-12-28T06:45:06.160Z,98.59
2022-12-28T06:47:37.419Z,98.36
2022-12-28T06:51:53.159Z,98.83
2022-12-28T06:54:23.059Z,98.81
2022-12-28T06:56:53.850Z,98.94
2022-12-28T06:59:23.768Z,98.92
2022-12-28T07:01:53.775Z,98.77
2022-12-28T07:04:23.889Z,98.93
2022-12-28T07:06:55.185Z,99.01
2022-12-28T07:09:25.043Z,99.23
2022-12-28T07:11:55.014Z,98.52
2022-12-28T07:14:25.206Z,99.08
2022-12-28T07:16:55.039Z,98.84
2022-12-28T07:19:24.788Z,98.39
2022-12-28T07:21:56.045Z,97.86
2022-12-28T07:24:25.857Z,96.96
2022-12-28T07:26:55.802Z,96.10
2022-12-28T07:29:25.657Z,94.62
2022-12-28T07:31:55.484Z,93.70
2022-12-28T07:34:25.341Z,92.23
2022-12-28T07:36:56.688Z,90.56
2022-12-28T07:39:26.527Z,90.17
2022-12-28T07:41:56.390Z,89.31
2022-12-28T07:44:29.547Z,89.22
2022-12-28T07:47:00.115Z,88.81
2022-12-28T07:49:30.059Z,88.28
2022-12-28T07:52:01.538Z,88.34
2022-12-28T07:54:31.486Z,86.77
2022-12-28T07:57:01.789Z,87.22
2022-12-28T07:59:31.799Z,86.76
2022-12-28T08:02:01.975Z,86.51
2022-12-28T08:04:32.038Z,86.09
2022-12-28T08:07:03.336Z,85.88
2022-12-28T08:09:33.233Z,85.80
2022-12-28T08:12:03.743Z,85.96
2022-12-28T08:14:33.677Z,85.81
2022-12-28T08:17:03.583Z,86.13
2022-12-28T08:19:33.420Z,85.50
2022-12-28T08:22:04.581Z,84.95
2022-12-28T08:24:35.923Z,85.16
2022-12-28T08:27:05.784Z,85.47
2022-12-28T08:29:35.838Z,83.83
2022-12-28T08:32:06.021Z,84.15
2022-12-28T08:34:35.899Z,82.97
2022-12-28T08:37:07.332Z,82.13
2022-12-28T08:39:37.285Z,82.06
2022-12-28T08:42:07.324Z,82.28
2022-12-28T08:44:37.260Z,81.48
2022-12-28T08:47:07.300Z,80.53
2022-12-28T08:49:37.146Z,80.35
2022-12-28T08:52:08.642Z,78.82
2022-12-28T08:54:38.944Z,79.63
2022-12-28T08:57:08.786Z,79.26
2022-12-28T08:59:38.703Z,79.31
2022-12-28T09:02:08.792Z,79.72
2022-12-28T09:04:38.560Z,79.90
2022-12-28T09:07:10.186Z,79.75
2022-12-28T09:09:39.984Z,79.59
2022-12-28T09:12:10.002Z,79.97
2022-12-28T09:14:39.725Z,80.60
2022-12-28T09:17:09.725Z,79.57
2022-12-28T09:19:39.629Z,80.33
2022-12-28T09:22:11.065Z,80.09
2022-12-28T09:24:40.924Z,79.71
2022-12-28T09:27:10.784Z,79.68
2022-12-28T09:29:40.718Z,79.79
2022-12-28T09:32:10.612Z,78.24
2022-12-28T09:34:40.496Z,77.87
2022-12-28T09:37:11.799Z,78.75
2022-12-28T09:39:41.808Z,79.23
2022-12-28T09:42:19.207Z,77.91
2022-12-28T09:44:57.101Z,77.62
2022-12-28T09:47:39.356Z,78.01
2022-12-28T09:51:59.309Z,77.90
2022-12-28T09:54:29.979Z,77.13
2022-12-28T09:57:00.444Z,78.35
2022-12-28T09:59:35.657Z,77.62
2022-12-28T10:02:11.776Z,77.26
2022-12-28T10:04:47.285Z,76.59
2022-12-28T10:07:21.217Z,76.28
2022-12-28T10:09:51.402Z,77.01
2022-12-28T10:12:24.984Z,77.08
2022-12-28T10:14:56.698Z,76.41
2022-12-28T10:17:31.361Z,77.19
2022-12-28T10:20:02.207Z,77.21
2022-12-28T10:22:47.983Z,77.69
2022-12-28T10:25:23.198Z,77.99
2022-12-28T10:27:53.858Z,78.46
2022-12-28T10:30:27.471Z,78.99
2022-12-28T10:33:03.102Z,79.04
2022-12-28T10:35:39.762Z,78.87
2022-12-28T10:38:24.820Z,79.28
2022-12-28T10:41:03.902Z,79.39
2022-12-28T10:43:37.470Z,79.23
2022-12-28T10:46:15.508Z,79.27
2022-12-28T10:48:50.016Z,79.32
2022-12-28T10:51:25.606Z,78.64
2022-12-28T10:53:58.633Z,77.86
2022-12-28T10:56:31.133Z,78.61
2022-12-28T10:59:26.216Z,78.63
2022-12-28T11:01:57.502Z,78.33
2022-12-28T11:04:28.779Z,77.77
2022-12-28T11:07:01.005Z,77.20
2022-12-28T11:09:35.562Z,77.45
2022-12-28T11:12:23.995Z,78.26
2022-12-28T11:14:54.662Z,77.82
2022-12-28T11:17:27.315Z,76.81
2022-12-28T11:20:03.285Z,77.20
2022-12-28T11:22:33.423Z,76.80
2022-12-28T11:25:06.059Z,77.75
2022-12-28T11:27:37.666Z,77.98
2022-12-28T11:30:17.473Z,77.79
2022-12-28T11:32:54.779Z,77.98
2022-12-28T11:35:28.787Z,79.03
2022-12-28T11:38:00.785Z,79.56
2022-12-28T11:40:54.481Z,79.28
2022-12-28T11:43:54.330Z,80.05
2022-12-28T11:46:45.322Z,80.09
2022-12-28T11:49:36.535Z,80.27
2022-12-28T11:52:49.717Z,79.79
2022-12-28T11:56:06.558Z,80.20
2022-12-28T11:59:22.345Z,79.18
2022-12-28T12:01:58.171Z,79.70
2022-12-28T12:04:46.550Z,78.29
2022-12-28T12:07:31.657Z,77.13
2022-12-28T12:10:39.327Z,77.04
2022-12-28T12:13:52.739Z,77.08
2022-12-28T12:16:30.866Z,77.83
2022-12-28T12:19:03.420Z,77.80
2022-12-28T12:21:37.777Z,77.57
2022-12-28T12:24:27.145Z,78.02
2022-12-28T12:27:07.285Z,78.78
2022-12-28T12:29:46.443Z,78.84
2022-12-28T12:32:23.398Z,78.56
2022-12-28T12:34:56.483Z,78.62
2022-12-28T12:37:45.217Z,79.12
2022-12-28T12:40:52.186Z,79.25
2022-12-28T12:43:37.676Z,79.94
2022-12-28T12:46:42.621Z,80.26
2022-12-28T12:51:59.112Z,79.88
2022-12-28T12:54:47.049Z,79.76
2022-12-28T12:57:22.433Z,79.44
2022-12-28T13:00:07.318Z,79.53
2022-12-28T13:03:16.659Z,80.26
2022-12-28T13:05:54.709Z,79.95
2022-12-28T13:08:30.011Z,80.26
2022-12-28T13:11:00.137Z,80.46
2022-12-28T13:13:36.262Z,80.31
2022-12-28T13:16:11.524Z,79.89
2022-12-28T13:18:45.758Z,80.03
2022-12-28T13:21:22.756Z,80.59
2022-12-28T13:23:54.768Z,80.77
2022-12-28T13:26:30.414Z,80.57
2022-12-28T13:29:03.061Z,80.92
2022-12-28T13:31:37.363Z,80.71
2022-12-28T13:34:17.765Z,80.69
2022-12-28T13:36:54.047Z,80.98
2022-12-28T13:39:27.164Z,81.03
2022-12-28T13:42:00.304Z,80.99
2022-12-28T13:44:43.705Z,80.96
2022-12-28T13:47:23.907Z,80.81
2022-12-28T13:50:00.839Z,81.25
2022-12-28T13:52:34.917Z,81.61
2022-12-28T13:55:11.878Z,81.32
2022-12-28T13:57:47.535Z,81.42
2022-12-28T14:00:20.973Z,81.64
2022-12-28T14:02:53.508Z,81.53
2022-12-28T14:05:27.675Z,81.97
2022-12-28T14:07:59.615Z,81.44
2022-12-28T14:10:31.625Z,81.82
2022-12-28T14:13:02.039Z,82.03
2022-12-28T14:15:38.943Z,82.15
2022-12-28T14:18:15.557Z,82.17
2022-12-28T14:20:53.503Z,82.58
2022-12-28T14:23:27.256Z,83.05
2022-12-28T14:26:01.741Z,83.46
2022-12-28T14:28:38.398Z,83.76
2022-12-28T14:31:10.314Z,83.68
2022-12-28T14:33:58.957Z,83.93
2022-12-28T14:36:34.309Z,84.16
2022-12-28T14:39:06.598Z,84.16
2022-12-28T14:41:43.061Z,84.25
2022-12-28T14:44:19.279Z,84.44
2022-12-28T14:46:52.695Z,84.69
2022-12-28T14:49:44.565Z,85.13
2022-12-28T14:52:38.663Z,85.52
2022-12-28T14:55:41.563Z,85.69
2022-12-28T14:58:23.027Z,86.15
2022-12-28T15:01:00.416Z,86.35
2022-12-28T15:03:31.113Z,86.20
2022-12-28T15:06:03.096Z,86.88
2022-12-28T15:08:32.863Z,87.36
2022-12-28T15:13:36.025Z,87.76
2022-12-28T15:16:07.154Z,88.28
2022-12-28T15:18:37.939Z,88.75
2022-12-28T15:21:08.479Z,89.02
2022-12-28T15:23:38.558Z,89.45
2022-12-28T15:26:12.059Z,89.54
2022-12-28T15:28:43.605Z,89.67
2022-12-28T15:31:15.924Z,89.38
2022-12-28T15:33:45.992Z,89.86
2022-12-28T15:36:19.393Z,90.27
2022-12-28T15:38:50.667Z,90.38
2022-12-28T15:41:38.326Z,90.38
2022-12-28T15:44:09.994Z,90.36
2022-12-28T15:46:40.000Z,90.46
2022-12-28T15:51:50.327Z,90.70
2022-12-28T15:54:20.329Z,90.60
2022-12-28T15:56:55.821Z,91.08
2022-12-28T15:59:26.919Z,91.15
2022-12-28T16:01:57.173Z,91.25
2022-12-28T16:04:27.160Z,91.44
2022-12-28T16:06:58.500Z,91.47
2022-12-28T16:09:28.257Z,91.38
2022-12-28T16:11:58.274Z,91.29
2022-12-28T16:14:28.163Z,91.36
2022-12-28T16:16:58.141Z,91.82
2022-12-28T16:19:27.901Z,91.95
2022-12-28T16:21:59.334Z,92.00
2022-12-28T16:24:29.355Z,92.50
2022-12-28T16:26:59.338Z,92.23
2022-12-28T16:29:29.279Z,92.49
2022-12-28T16:32:02.054Z,92.67
2022-12-28T16:34:32.065Z,92.57
2022-12-28T16:37:03.609Z,93.12
2022-12-28T16:39:33.790Z,92.80
2022-12-28T16:42:03.678Z,93.30
2022-12-28T16:44:34.365Z,93.35
2022-12-28T16:47:04.373Z,93.37
2022-12-28T16:49:34.287Z,93.18
2022-12-28T16:52:05.936Z,93.40
2022-12-28T16:54:36.190Z,93.67
2022-12-28T16:57:06.013Z,93.70
2022-12-28T16:59:35.856Z,93.81
2022-12-28T17:02:05.938Z,93.31
2022-12-28T17:04:36.258Z,93.42
2022-12-28T17:07:07.605Z,94.25
2022-12-28T17:09:37.885Z,94.18
2022-12-28T17:12:08.480Z,94.19
2022-12-28T17:14:38.445Z,94.15
2022-12-28T17:17:08.967Z,93.95
2022-12-28T17:19:38.840Z,94.45
2022-12-28T17:22:10.322Z,94.57
2022-12-28T17:24:40.520Z,94.12
2022-12-28T17:27:15.559Z,94.19
2022-12-28T17:29:48.783Z,94.29
2022-12-28T17:32:19.145Z,94.68
2022-12-28T17:34:49.360Z,94.58
2022-12-28T17:37:20.600Z,95.00
2022-12-28T17:39:50.493Z,95.02
2022-12-28T17:42:20.435Z,94.90
2022-12-28T17:44:50.490Z,95.51
2022-12-28T17:47:20.417Z,96.04
2022-12-28T17:49:50.306Z,96.11
2022-12-28T17:52:23.843Z,96.54
2022-12-28T17:54:53.976Z,96.14
2022-12-28T17:57:23.880Z,96.77
2022-12-28T17:59:53.792Z,96.45
2022-12-28T18:02:24.209Z,96.76
2022-12-28T18:04:54.397Z,96.36
2022-12-28T18:07:25.817Z,96.22
2022-12-28T18:09:55.803Z,96.04
2022-12-28T18:12:25.700Z,95.98
2022-12-28T18:14:55.577Z,95.87
2022-12-28T18:17:25.510Z,95.72
2022-12-28T18:19:56.308Z,96.21
2022-12-28T18:22:27.725Z,96.46
2022-12-28T18:24:57.563Z,96.56
2022-12-28T18:27:27.332Z,96.46
2022-12-28T18:29:57.205Z,95.98
2022-12-28T18:32:27.834Z,96.70
2022-12-28T18:34:57.777Z,96.61
2022-12-28T18:37:29.600Z,96.44
2022-12-28T18:39:59.396Z,96.69
2022-12-28T18:42:29.251Z,96.82
2022-12-28T18:44:59.487Z,96.69
2022-12-28T18:47:33.174Z,96.73
2022-12-28T18:51:50.085Z,96.54
2022-12-28T18:54:19.858Z,96.99
2022-12-28T18:56:49.758Z,96.78
2022-12-28T18:59:19.593Z,96.60
2022-12-28T19:02:06.450Z,97.34
2022-12-28T19:04:37.276Z,97.42
2022-12-28T19:07:08.742Z,97.40
2022-12-28T19:09:38.875Z,97.47
2022-12-28T19:12:08.884Z,97.60
2022-12-28T19:14:38.799Z,97.52
2022-12-28T19:17:08.558Z,97.88
2022-12-28T19:19:38.881Z,98.15
2022-12-28T19:22:10.196Z,98.16
2022-12-28T19:24:40.086Z,98.06
2022-12-28T19:27:10.072Z,97.78
2022-12-28T19:29:40.047Z,97.83
2022-12-28T19:32:09.956Z,98.08
2022-12-28T19:34:39.839Z,98.14
2022-12-28T19:37:11.227Z,98.76
2022-12-28T19:39:41.111Z,98.76
2022-12-28T19:42:10.878Z,99.18
2022-12-28T19:44:41.185Z,99.34
2022-12-28T19:47:11.022Z,99.37
2022-12-28T19:49:40.911Z,99.29
2022-12-28T19:52:12.257Z,98.95
2022-12-28T19:54:42.177Z,99.14
2022-12-28T19:57:12.959Z,99.14
2022-12-28T19:59:42.928Z,99.12
2022-12-28T20:02:14.296Z,99.19
2022-12-28T20:04:44.143Z,99.08
2022-12-28T20:07:15.444Z,99.06
2022-12-28T20:09:45.550Z,98.80
2022-12-28T20:12:15.398Z,98.88
2022-12-28T20:14:46.989Z,99.13
2022-12-28T20:17:17.199Z,98.58
2022-12-28T20:19:47.023Z,99.29
2022-12-28T20:22:18.485Z,99.08
2022-12-28T20:24:48.290Z,99.13
2022-12-28T20:27:18.207Z,99.19
2022-12-28T20:29:48.472Z,99.48
2022-12-28T20:32:18.450Z,99.84
2022-12-28T20:34:48.347Z,99.89
2022-12-28T20:37:19.870Z,99.76
2022-12-28T20:39:49.885Z,99.83
2022-12-28T20:42:36.563Z,99.73
2022-12-28T20:45:07.183Z,99.56
2022-12-28T20:47:37.027Z,100.00
2022-12-28T20:50:08.204Z,99.94
2022-12-28T20:52:39.499Z,99.66
2022-12-28T20:55:10.282Z,99.52
2022-12-28T20:57:40.287Z,99.87
2022-12-28T21:00:12.462Z,99.94
2022-12-28T21:02:42.954Z,99.85
2022-12-28T21:05:13.350Z,99.99
2022-12-28T21:07:44.662Z,100.00
2022-12-28T21:10:14.644Z,100.00
2022-12-28T21:12:44.798Z,100.00
2022-12-28T21:15:14.897Z,99.66
2022-12-28T21:17:44.845Z,99.95
2022-12-28T21:20:14.936Z,99.93
2022-12-28T21:22:46.257Z,100.00
2022-12-28T21:25:16.186Z,100.00
2022-12-28T21:27:45.986Z,100.00
2022-12-28T21:30:16.243Z,100.00
2022-12-28T21:32:49.805Z,100.00
2022-12-28T21:35:19.408Z,100.00
2022-12-28T21:37:50.738Z,100.00
2022-12-28T21:40:20.739Z,100.00
2022-12-28T21:42:50.445Z,100.00
2022-12-28T21:45:20.416Z,100.00
2022-12-28T21:47:50.273Z,100.00
2022-12-28T21:51:50.486Z,100.00
2022-12-28T21:54:22.877Z,100.00
2022-12-28T21:56:55.066Z,100.00
2022-12-28T21:59:26.986Z,100.00
2022-12-28T22:02:14.403Z,100.00
2022-12-28T22:05:16.984Z,100.00
2022-12-28T22:07:48.726Z,100.00
2022-12-28T22:10:36.067Z,100.00
2022-12-28T22:13:05.858Z,100.00
2022-12-28T22:15:54.338Z,100.00
2022-12-28T22:21:16.551Z,100.00
2022-12-28T22:23:48.040Z,100.00
2022-12-28T22:26:17.904Z,100.00
2022-12-28T22:28:47.938Z,100.00
2022-12-28T22:31:18.155Z,100.00
2022-12-28T22:33:48.075Z,100.00
2022-12-28T22:36:20.143Z,100.00
2022-12-28T22:38:51.722Z,100.00
2022-12-28T22:41:21.745Z,100.00
2022-12-28T22:43:52.695Z,100.00
2022-12-28T22:46:23.766Z,100.00
2022-12-28T22:48:53.708Z,100.00
2022-12-28T22:51:23.675Z,100.00
2022-12-28T22:53:55.065Z,100.00
2022-12-28T22:56:25.039Z,100.00
2022-12-28T22:58:54.758Z,100.00
2022-12-28T23:01:24.703Z,100.00
2022-12-28T23:03:54.641Z,100.00
2022-12-28T23:06:24.399Z,100.00
2022-12-28T23:08:55.866Z,100.00
2022-12-28T23:11:38.460Z,100.00
2022-12-28T23:14:29.660Z,100.00
2022-12-28T23:16:59.853Z,100.00
2022-12-28T23:19:47.218Z,100.00
2022-12-28T23:22:36.727Z,100.00
2022-12-28T23:25:27.521Z,100.00
2022-12-28T23:27:57.281Z,100.00
2022-12-28T23:30:27.220Z,100.00
2022-12-28T23:32:57.867Z,100.00
2022-12-28T23:35:28.835Z,100.00
2022-12-28T23:37:58.792Z,100.00
2022-12-28T23:40:30.765Z,100.00
2022-12-28T23:43:00.616Z,100.00
2022-12-28T23:45:30.479Z,100.00
2022-12-28T23:48:00.361Z,100.00
2022-12-28T23:50:30.303Z,100.00
2022-12-28T23:53:00.259Z,100.00
2022-12-28T23:55:31.669Z,100.00
2022-12-28T23:58:01.496Z,100.00
